sensor_id;sensor_type;location;lat;lon;timestamp;P1;durP1;ratioP1;P2;durP2;ratioP2
3789;SDS011;1910;49.042;9.028;2023-06-10T00:02:10;4.97;;;4.47;;
3789;SDS011;1910;49.042;9.028;2023-06-10T00:04:35;6.80;;;5.10;;
3789;SDS011;1910;49.042;9.028;2023-06-10T00:07:04;6.50;;;4.80;;
3789;SDS011;1910;49.042;9.028;2023-06-10T00:09:34;8.73;;;5.47;;
3789;SDS011;1910;49.042;9.028;2023-06-10T00:12:01;9.20;;;7.80;;
3789;SDS011;1910;49.042;9.028;2023-06-10T00:14:27;6.23;;;5.30;;
3789;SDS011;1910;49.042;9.028;2023-06-10T00:16:53;5.80;;;4.80;;
3789;SDS011;1910;49.042;9.028;2023-06-10T00:19:20;6.63;;;4.27;;
3789;SDS011;1910;49.042;9.028;2023-06-10T00:21:50;6.70;;;4.90;;
3789;SDS011;1910;49.042;9.028;2023-06-10T00:24:17;7.50;;;4.80;;
3789;SDS011;1910;49.042;9.028;2023-06-10T00:26:43;7.37;;;5.10;;
3789;SDS011;1910;49.042;9.028;2023-06-10T00:29:08;7.90;;;5.47;;
3789;SDS011;1910;49.042;9.028;2023-06-10T00:31:34;8.20;;;4.87;;
3789;SDS011;1910;49.042;9.028;2023-06-10T00:34:02;6.13;;;4.77;;
3789;SDS011;1910;49.042;9.028;2023-06-10T00:36:27;5.63;;;4.53;;
3789;SDS011;1910;49.042;9.028;2023-06-10T00:38:53;5.23;;;4.27;;
3789;SDS011;1910;49.042;9.028;2023-06-10T00:41:19;5.07;;;4.00;;
3789;SDS011;1910;49.042;9.028;2023-06-10T00:43:45;4.57;;;4.20;;
3789;SDS011;1910;49.042;9.028;2023-06-10T00:46:11;7.00;;;5.70;;
3789;SDS011;1910;49.042;9.028;2023-06-10T00:48:39;10.73;;;5.60;;
3789;SDS011;1910;49.042;9.028;2023-06-10T00:51:06;5.33;;;4.13;;
3789;SDS011;1910;49.042;9.028;2023-06-10T00:53:34;6.87;;;4.97;;
3789;SDS011;1910;49.042;9.028;2023-06-10T00:56:01;5.30;;;3.87;;
3789;SDS011;1910;49.042;9.028;2023-06-10T00:58:27;6.33;;;4.60;;
3789;SDS011;1910;49.042;9.028;2023-06-10T01:00:53;6.13;;;4.37;;
3789;SDS011;1910;49.042;9.028;2023-06-10T01:03:19;8.57;;;4.80;;
3789;SDS011;1910;49.042;9.028;2023-06-10T01:05:46;6.77;;;4.93;;
3789;SDS011;1910;49.042;9.028;2023-06-10T01:08:41;5.93;;;3.47;;
3789;SDS011;1910;49.042;9.028;2023-06-10T01:11:41;6.30;;;4.77;;
3789;SDS011;1910;49.042;9.028;2023-06-10T01:14:12;6.13;;;3.90;;
3789;SDS011;1910;49.042;9.028;2023-06-10T01:16:39;4.43;;;4.00;;
3789;SDS011;1910;49.042;9.028;2023-06-10T01:19:05;5.97;;;4.30;;
3789;SDS011;1910;49.042;9.028;2023-06-10T01:21:32;4.37;;;3.93;;
3789;SDS011;1910;49.042;9.028;2023-06-10T01:23:58;5.27;;;3.83;;
3789;SDS011;1910;49.042;9.028;2023-06-10T01:26:30;4.20;;;3.80;;
3789;SDS011;1910;49.042;9.028;2023-06-10T01:29:00;5.50;;;3.97;;
3789;SDS011;1910;49.042;9.028;2023-06-10T01:34:09;5.07;;;4.23;;
3789;SDS011;1910;49.042;9.028;2023-06-10T01:36:36;4.57;;;3.73;;
3789;SDS011;1910;49.042;9.028;2023-06-10T01:39:03;5.60;;;4.20;;
3789;SDS011;1910;49.042;9.028;2023-06-10T01:41:31;5.03;;;4.20;;
3789;SDS011;1910;49.042;9.028;2023-06-10T01:43:57;13.53;;;3.53;;
3789;SDS011;1910;49.042;9.028;2023-06-10T01:46:23;4.53;;;3.80;;
3789;SDS011;1910;49.042;9.028;2023-06-10T01:48:48;4.67;;;4.17;;
3789;SDS011;1910;49.042;9.028;2023-06-10T01:51:14;4.80;;;3.73;;
3789;SDS011;1910;49.042;9.028;2023-06-10T01:53:40;7.67;;;4.97;;
3789;SDS011;1910;49.042;9.028;2023-06-10T01:56:05;4.87;;;4.10;;
3789;SDS011;1910;49.042;9.028;2023-06-10T01:58:31;5.37;;;4.40;;
3789;SDS011;1910;49.042;9.028;2023-06-10T02:00:57;10.20;;;4.43;;
3789;SDS011;1910;49.042;9.028;2023-06-10T02:03:23;5.90;;;4.53;;
3789;SDS011;1910;49.042;9.028;2023-06-10T02:05:49;5.37;;;4.50;;
3789;SDS011;1910;49.042;9.028;2023-06-10T02:08:14;8.23;;;4.70;;
3789;SDS011;1910;49.042;9.028;2023-06-10T02:10:40;6.33;;;4.57;;
3789;SDS011;1910;49.042;9.028;2023-06-10T02:13:06;5.23;;;4.17;;
3789;SDS011;1910;49.042;9.028;2023-06-10T02:15:31;5.13;;;3.73;;
3789;SDS011;1910;49.042;9.028;2023-06-10T02:17:57;5.90;;;4.50;;
3789;SDS011;1910;49.042;9.028;2023-06-10T02:20:23;5.70;;;4.40;;
3789;SDS011;1910;49.042;9.028;2023-06-10T02:22:48;9.80;;;3.60;;
3789;SDS011;1910;49.042;9.028;2023-06-10T02:25:14;7.07;;;5.20;;
3789;SDS011;1910;49.042;9.028;2023-06-10T02:27:40;6.50;;;4.40;;
3789;SDS011;1910;49.042;9.028;2023-06-10T02:30:06;7.37;;;4.47;;
3789;SDS011;1910;49.042;9.028;2023-06-10T02:32:34;13.90;;;5.40;;
3789;SDS011;1910;49.042;9.028;2023-06-10T02:35:00;6.57;;;4.30;;
3789;SDS011;1910;49.042;9.028;2023-06-10T02:37:25;5.53;;;4.87;;
3789;SDS011;1910;49.042;9.028;2023-06-10T02:39:51;5.40;;;4.67;;
3789;SDS011;1910;49.042;9.028;2023-06-10T02:42:17;6.37;;;4.73;;
3789;SDS011;1910;49.042;9.028;2023-06-10T02:44:42;8.43;;;5.40;;
3789;SDS011;1910;49.042;9.028;2023-06-10T02:47:08;7.73;;;6.03;;
3789;SDS011;1910;49.042;9.028;2023-06-10T02:49:34;6.03;;;4.97;;
3789;SDS011;1910;49.042;9.028;2023-06-10T02:52:00;9.57;;;5.13;;
3789;SDS011;1910;49.042;9.028;2023-06-10T02:54:26;7.50;;;5.50;;
3789;SDS011;1910;49.042;9.028;2023-06-10T02:56:52;6.13;;;5.20;;
3789;SDS011;1910;49.042;9.028;2023-06-10T02:59:20;8.30;;;5.60;;
3789;SDS011;1910;49.042;9.028;2023-06-10T03:01:46;8.97;;;5.27;;
3789;SDS011;1910;49.042;9.028;2023-06-10T03:04:12;6.00;;;5.10;;
3789;SDS011;1910;49.042;9.028;2023-06-10T03:06:40;6.77;;;5.30;;
3789;SDS011;1910;49.042;9.028;2023-06-10T03:09:06;8.67;;;5.73;;
3789;SDS011;1910;49.042;9.028;2023-06-10T03:11:35;6.20;;;4.67;;
3789;SDS011;1910;49.042;9.028;2023-06-10T03:14:01;10.73;;;6.10;;
3789;SDS011;1910;49.042;9.028;2023-06-10T03:16:26;8.30;;;5.80;;
3789;SDS011;1910;49.042;9.028;2023-06-10T03:18:53;9.00;;;5.00;;
3789;SDS011;1910;49.042;9.028;2023-06-10T03:21:19;7.17;;;5.80;;
3789;SDS011;1910;49.042;9.028;2023-06-10T03:23:45;6.30;;;4.97;;
3789;SDS011;1910;49.042;9.028;2023-06-10T03:26:11;7.77;;;5.97;;
3789;SDS011;1910;49.042;9.028;2023-06-10T03:28:40;6.67;;;5.23;;
3789;SDS011;1910;49.042;9.028;2023-06-10T03:31:05;7.07;;;4.83;;
3789;SDS011;1910;49.042;9.028;2023-06-10T03:33:31;8.00;;;6.03;;
3789;SDS011;1910;49.042;9.028;2023-06-10T03:35:57;5.30;;;4.73;;
3789;SDS011;1910;49.042;9.028;2023-06-10T03:38:23;6.20;;;4.97;;
3789;SDS011;1910;49.042;9.028;2023-06-10T03:40:49;8.00;;;5.50;;
3789;SDS011;1910;49.042;9.028;2023-06-10T03:43:15;8.10;;;5.27;;
3789;SDS011;1910;49.042;9.028;2023-06-10T03:45:41;8.70;;;4.90;;
3789;SDS011;1910;49.042;9.028;2023-06-10T03:48:07;6.20;;;5.43;;
3789;SDS011;1910;49.042;9.028;2023-06-10T03:50:33;6.63;;;5.07;;
3789;SDS011;1910;49.042;9.028;2023-06-10T03:53:01;6.27;;;4.80;;
3789;SDS011;1910;49.042;9.028;2023-06-10T03:55:26;6.97;;;4.80;;
3789;SDS011;1910;49.042;9.028;2023-06-10T03:57:52;5.93;;;4.97;;
3789;SDS011;1910;49.042;9.028;2023-06-10T04:00:18;10.13;;;6.67;;
3789;SDS011;1910;49.042;9.028;2023-06-10T04:02:46;7.40;;;5.50;;
3789;SDS011;1910;49.042;9.028;2023-06-10T04:05:14;7.77;;;6.40;;
3789;SDS011;1910;49.042;9.028;2023-06-10T04:07:40;4.53;;;3.77;;
3789;SDS011;1910;49.042;9.028;2023-06-10T04:10:07;6.90;;;5.13;;
3789;SDS011;1910;49.042;9.028;2023-06-10T04:12:34;7.27;;;5.57;;
3789;SDS011;1910;49.042;9.028;2023-06-10T04:15:00;4.47;;;3.90;;
3789;SDS011;1910;49.042;9.028;2023-06-10T04:17:25;8.50;;;5.30;;
3789;SDS011;1910;49.042;9.028;2023-06-10T04:19:51;6.07;;;4.83;;
3789;SDS011;1910;49.042;9.028;2023-06-10T04:22:17;5.03;;;4.17;;
3789;SDS011;1910;49.042;9.028;2023-06-10T04:24:43;6.80;;;5.33;;
3789;SDS011;1910;49.042;9.028;2023-06-10T04:27:09;4.77;;;4.30;;
3789;SDS011;1910;49.042;9.028;2023-06-10T04:29:35;7.30;;;5.40;;
3789;SDS011;1910;49.042;9.028;2023-06-10T04:32:01;5.37;;;4.07;;
3789;SDS011;1910;49.042;9.028;2023-06-10T04:34:27;5.63;;;4.30;;
3789;SDS011;1910;49.042;9.028;2023-06-10T04:36:53;4.90;;;4.40;;
3789;SDS011;1910;49.042;9.028;2023-06-10T04:39:19;6.67;;;5.50;;
3789;SDS011;1910;49.042;9.028;2023-06-10T04:41:45;4.23;;;3.87;;
3789;SDS011;1910;49.042;9.028;2023-06-10T04:44:11;5.40;;;4.90;;
3789;SDS011;1910;49.042;9.028;2023-06-10T04:46:38;4.70;;;4.20;;
3789;SDS011;1910;49.042;9.028;2023-06-10T04:49:04;5.03;;;4.53;;
3789;SDS011;1910;49.042;9.028;2023-06-10T04:51:31;6.07;;;5.50;;
3789;SDS011;1910;49.042;9.028;2023-06-10T04:53:57;5.53;;;5.03;;
3789;SDS011;1910;49.042;9.028;2023-06-10T04:56:23;8.60;;;6.10;;
3789;SDS011;1910;49.042;9.028;2023-06-10T04:58:49;6.90;;;6.30;;
3789;SDS011;1910;49.042;9.028;2023-06-10T05:01:15;6.20;;;5.80;;
3789;SDS011;1910;49.042;9.028;2023-06-10T05:03:41;7.03;;;6.43;;
3789;SDS011;1910;49.042;9.028;2023-06-10T05:06:07;8.13;;;7.17;;
3789;SDS011;1910;49.042;9.028;2023-06-10T05:08:33;7.73;;;7.03;;
3789;SDS011;1910;49.042;9.028;2023-06-10T05:10:59;6.40;;;5.97;;
3789;SDS011;1910;49.042;9.028;2023-06-10T05:13:25;6.53;;;6.13;;
3789;SDS011;1910;49.042;9.028;2023-06-10T05:15:51;8.13;;;7.43;;
3789;SDS011;1910;49.042;9.028;2023-06-10T05:18:17;7.93;;;7.33;;
3789;SDS011;1910;49.042;9.028;2023-06-10T05:20:43;7.60;;;7.10;;
3789;SDS011;1910;49.042;9.028;2023-06-10T05:23:09;8.90;;;8.10;;
3789;SDS011;1910;49.042;9.028;2023-06-10T05:25:35;8.00;;;7.50;;
3789;SDS011;1910;49.042;9.028;2023-06-10T05:28:01;8.13;;;7.53;;
3789;SDS011;1910;49.042;9.028;2023-06-10T05:30:27;8.73;;;7.97;;
3789;SDS011;1910;49.042;9.028;2023-06-10T05:32:53;7.90;;;7.20;;
3789;SDS011;1910;49.042;9.028;2023-06-10T05:35:20;8.60;;;7.90;;
3789;SDS011;1910;49.042;9.028;2023-06-10T05:37:46;8.57;;;7.80;;
3789;SDS011;1910;49.042;9.028;2023-06-10T05:40:12;7.90;;;7.30;;
3789;SDS011;1910;49.042;9.028;2023-06-10T05:42:38;8.17;;;7.57;;
3789;SDS011;1910;49.042;9.028;2023-06-10T05:45:05;9.43;;;8.73;;
3789;SDS011;1910;49.042;9.028;2023-06-10T05:47:31;9.47;;;8.57;;
3789;SDS011;1910;49.042;9.028;2023-06-10T05:49:57;9.30;;;8.50;;
3789;SDS011;1910;49.042;9.028;2023-06-10T05:52:24;8.80;;;8.10;;
3789;SDS011;1910;49.042;9.028;2023-06-10T05:54:50;9.47;;;8.87;;
3789;SDS011;1910;49.042;9.028;2023-06-10T05:57:16;9.40;;;8.77;;
3789;SDS011;1910;49.042;9.028;2023-06-10T05:59:42;9.20;;;8.50;;
3789;SDS011;1910;49.042;9.028;2023-06-10T06:02:08;9.83;;;9.00;;
3789;SDS011;1910;49.042;9.028;2023-06-10T06:04:34;9.43;;;8.63;;
3789;SDS011;1910;49.042;9.028;2023-06-10T06:07:00;10.27;;;9.57;;
3789;SDS011;1910;49.042;9.028;2023-06-10T06:09:26;9.60;;;9.00;;
3789;SDS011;1910;49.042;9.028;2023-06-10T06:11:52;9.80;;;9.00;;
3789;SDS011;1910;49.042;9.028;2023-06-10T06:14:18;11.43;;;10.63;;
3789;SDS011;1910;49.042;9.028;2023-06-10T06:16:44;10.43;;;9.73;;
3789;SDS011;1910;49.042;9.028;2023-06-10T06:19:10;10.80;;;10.00;;
3789;SDS011;1910;49.042;9.028;2023-06-10T06:21:36;10.40;;;9.70;;
3789;SDS011;1910;49.042;9.028;2023-06-10T06:24:02;12.23;;;11.17;;
3789;SDS011;1910;49.042;9.028;2023-06-10T06:26:28;11.63;;;10.73;;
3789;SDS011;1910;49.042;9.028;2023-06-10T06:28:54;10.30;;;9.60;;
3789;SDS011;1910;49.042;9.028;2023-06-10T06:31:20;10.70;;;9.87;;
3789;SDS011;1910;49.042;9.028;2023-06-10T06:33:46;10.37;;;9.57;;
3789;SDS011;1910;49.042;9.028;2023-06-10T06:36:11;10.37;;;9.70;;
3789;SDS011;1910;49.042;9.028;2023-06-10T06:38:37;10.33;;;9.43;;
3789;SDS011;1910;49.042;9.028;2023-06-10T06:41:03;11.20;;;10.30;;
3789;SDS011;1910;49.042;9.028;2023-06-10T06:43:31;10.13;;;9.43;;
3789;SDS011;1910;49.042;9.028;2023-06-10T06:45:57;12.33;;;11.53;;
3789;SDS011;1910;49.042;9.028;2023-06-10T06:48:23;10.87;;;10.10;;
3789;SDS011;1910;49.042;9.028;2023-06-10T06:50:49;11.97;;;11.20;;
3789;SDS011;1910;49.042;9.028;2023-06-10T06:53:16;10.77;;;10.07;;
3789;SDS011;1910;49.042;9.028;2023-06-10T06:55:42;10.80;;;10.00;;
3789;SDS011;1910;49.042;9.028;2023-06-10T06:58:08;10.90;;;10.20;;
3789;SDS011;1910;49.042;9.028;2023-06-10T07:00:34;11.90;;;11.10;;
3789;SDS011;1910;49.042;9.028;2023-06-10T07:03:00;11.53;;;10.80;;
3789;SDS011;1910;49.042;9.028;2023-06-10T07:05:26;10.97;;;10.07;;
3789;SDS011;1910;49.042;9.028;2023-06-10T07:07:52;11.17;;;10.27;;
3789;SDS011;1910;49.042;9.028;2023-06-10T07:10:20;11.37;;;10.57;;
3789;SDS011;1910;49.042;9.028;2023-06-10T07:12:50;12.47;;;11.67;;
3789;SDS011;1910;49.042;9.028;2023-06-10T07:15:16;11.03;;;10.30;;
3789;SDS011;1910;49.042;9.028;2023-06-10T07:17:42;10.97;;;10.07;;
3789;SDS011;1910;49.042;9.028;2023-06-10T07:20:08;11.50;;;10.60;;
3789;SDS011;1910;49.042;9.028;2023-06-10T07:22:34;11.13;;;10.37;;
3789;SDS011;1910;49.042;9.028;2023-06-10T07:25:00;11.03;;;10.40;;
3789;SDS011;1910;49.042;9.028;2023-06-10T07:27:26;10.30;;;9.70;;
3789;SDS011;1910;49.042;9.028;2023-06-10T07:29:52;12.10;;;11.40;;
3789;SDS011;1910;49.042;9.028;2023-06-10T07:32:19;10.37;;;9.77;;
3789;SDS011;1910;49.042;9.028;2023-06-10T07:34:47;9.97;;;9.40;;
3789;SDS011;1910;49.042;9.028;2023-06-10T09:32:21;11.13;;;10.50;;
3789;SDS011;1910;49.042;9.028;2023-06-10T09:34:48;11.73;;;10.90;;
3789;SDS011;1910;49.042;9.028;2023-06-10T09:37:22;10.53;;;9.83;;
3789;SDS011;1910;49.042;9.028;2023-06-10T09:40:07;12.37;;;11.30;;
3789;SDS011;1910;49.042;9.028;2023-06-10T09:42:35;12.60;;;11.17;;
3789;SDS011;1910;49.042;9.028;2023-06-10T09:45:04;10.97;;;10.23;;
3789;SDS011;1910;49.042;9.028;2023-06-10T09:47:31;11.40;;;10.57;;
3789;SDS011;1910;49.042;9.028;2023-06-10T09:49:57;10.50;;;9.70;;
3789;SDS011;1910;49.042;9.028;2023-06-10T09:52:23;10.70;;;10.00;;
3789;SDS011;1910;49.042;9.028;2023-06-10T09:54:52;9.93;;;9.33;;
3789;SDS011;1910;49.042;9.028;2023-06-10T09:57:21;10.70;;;9.97;;
3789;SDS011;1910;49.042;9.028;2023-06-10T09:59:47;10.43;;;9.73;;
3789;SDS011;1910;49.042;9.028;2023-06-10T10:02:17;11.73;;;10.93;;
3789;SDS011;1910;49.042;9.028;2023-06-10T10:04:44;11.17;;;10.27;;
3789;SDS011;1910;49.042;9.028;2023-06-10T10:07:10;11.13;;;10.20;;
3789;SDS011;1910;49.042;9.028;2023-06-10T10:09:40;10.43;;;9.60;;
3789;SDS011;1910;49.042;9.028;2023-06-10T10:12:10;9.07;;;8.47;;
3789;SDS011;1910;49.042;9.028;2023-06-10T10:14:37;10.47;;;9.37;;
3789;SDS011;1910;49.042;9.028;2023-06-10T10:17:07;9.90;;;9.30;;
3789;SDS011;1910;49.042;9.028;2023-06-10T10:19:37;10.43;;;9.70;;
3789;SDS011;1910;49.042;9.028;2023-06-10T10:22:10;10.30;;;9.53;;
3789;SDS011;1910;49.042;9.028;2023-06-10T10:24:46;10.73;;;9.83;;
3789;SDS011;1910;49.042;9.028;2023-06-10T10:27:21;9.90;;;9.30;;
3789;SDS011;1910;49.042;9.028;2023-06-10T10:30:02;9.77;;;9.17;;
3789;SDS011;1910;49.042;9.028;2023-06-10T10:35:34;9.77;;;9.17;;
3789;SDS011;1910;49.042;9.028;2023-06-10T10:38:01;10.27;;;9.47;;
3789;SDS011;1910;49.042;9.028;2023-06-10T10:40:27;10.40;;;9.50;;
3789;SDS011;1910;49.042;9.028;2023-06-10T10:42:55;10.10;;;9.30;;
3789;SDS011;1910;49.042;9.028;2023-06-10T10:45:21;14.80;;;9.10;;
3789;SDS011;1910;49.042;9.028;2023-06-10T10:47:51;9.67;;;7.90;;
3789;SDS011;1910;49.042;9.028;2023-06-10T10:50:18;8.23;;;7.63;;
3789;SDS011;1910;49.042;9.028;2023-06-10T10:53:01;7.27;;;6.67;;
3789;SDS011;1910;49.042;9.028;2023-06-10T10:55:28;7.73;;;7.03;;
3789;SDS011;1910;49.042;9.028;2023-06-10T10:57:54;8.77;;;7.97;;
3789;SDS011;1910;49.042;9.028;2023-06-10T11:00:33;7.93;;;7.30;;
3789;SDS011;1910;49.042;9.028;2023-06-10T11:05:32;8.40;;;7.70;;
3789;SDS011;1910;49.042;9.028;2023-06-10T11:08:04;8.37;;;7.67;;
3789;SDS011;1910;49.042;9.028;2023-06-10T11:10:33;7.57;;;6.90;;
3789;SDS011;1910;49.042;9.028;2023-06-10T11:13:07;7.53;;;6.93;;
3789;SDS011;1910;49.042;9.028;2023-06-10T11:15:34;7.03;;;6.43;;
3789;SDS011;1910;49.042;9.028;2023-06-10T11:18:14;7.60;;;7.07;;
3789;SDS011;1910;49.042;9.028;2023-06-10T11:20:51;7.60;;;6.80;;
3789;SDS011;1910;49.042;9.028;2023-06-10T11:29:00;6.63;;;6.03;;
3789;SDS011;1910;49.042;9.028;2023-06-10T11:31:28;7.10;;;6.50;;
3789;SDS011;1910;49.042;9.028;2023-06-10T11:34:02;9.40;;;6.27;;
3789;SDS011;1910;49.042;9.028;2023-06-10T11:36:29;7.10;;;6.50;;
3789;SDS011;1910;49.042;9.028;2023-06-10T11:38:57;7.10;;;6.50;;
3789;SDS011;1910;49.042;9.028;2023-06-10T11:41:26;8.50;;;6.10;;
3789;SDS011;1910;49.042;9.028;2023-06-10T11:43:53;6.73;;;6.23;;
3789;SDS011;1910;49.042;9.028;2023-06-10T11:46:23;6.43;;;5.83;;
3789;SDS011;1910;49.042;9.028;2023-06-10T11:48:58;7.00;;;6.43;;
3789;SDS011;1910;49.042;9.028;2023-06-10T11:51:25;7.53;;;6.90;;
3789;SDS011;1910;49.042;9.028;2023-06-10T11:53:52;6.93;;;6.40;;
3789;SDS011;1910;49.042;9.028;2023-06-10T11:56:28;7.77;;;6.63;;
3789;SDS011;1910;49.042;9.028;2023-06-10T11:58:55;7.70;;;7.10;;
3789;SDS011;1910;49.042;9.028;2023-06-10T12:01:35;6.73;;;6.13;;
3789;SDS011;1910;49.042;9.028;2023-06-10T12:06:27;6.40;;;5.87;;
3789;SDS011;1910;49.042;9.028;2023-06-10T12:09:03;6.20;;;5.70;;
3789;SDS011;1910;49.042;9.028;2023-06-10T12:11:29;6.50;;;5.97;;
3789;SDS011;1910;49.042;9.028;2023-06-10T12:13:55;7.17;;;6.53;;
3789;SDS011;1910;49.042;9.028;2023-06-10T12:16:20;6.97;;;6.47;;
3789;SDS011;1910;49.042;9.028;2023-06-10T12:18:46;6.40;;;5.90;;
3789;SDS011;1910;49.042;9.028;2023-06-10T12:21:23;6.40;;;5.80;;
3789;SDS011;1910;49.042;9.028;2023-06-10T12:24:06;7.27;;;6.40;;
3789;SDS011;1910;49.042;9.028;2023-06-10T12:26:36;6.07;;;5.57;;
3789;SDS011;1910;49.042;9.028;2023-06-10T12:29:20;6.63;;;5.97;;
3789;SDS011;1910;49.042;9.028;2023-06-10T12:31:52;6.00;;;5.40;;
3789;SDS011;1910;49.042;9.028;2023-06-10T12:34:30;6.43;;;5.83;;
3789;SDS011;1910;49.042;9.028;2023-06-10T12:36:59;6.47;;;5.87;;
3789;SDS011;1910;49.042;9.028;2023-06-10T12:39:25;5.87;;;5.37;;
3789;SDS011;1910;49.042;9.028;2023-06-10T12:41:51;6.17;;;5.67;;
3789;SDS011;1910;49.042;9.028;2023-06-10T12:44:17;5.90;;;4.90;;
3789;SDS011;1910;49.042;9.028;2023-06-10T12:46:43;5.90;;;5.40;;
3789;SDS011;1910;49.042;9.028;2023-06-10T12:49:18;10.03;;;5.67;;
3789;SDS011;1910;49.042;9.028;2023-06-10T12:51:44;6.07;;;5.57;;
3789;SDS011;1910;49.042;9.028;2023-06-10T12:54:10;7.73;;;5.70;;
3789;SDS011;1910;49.042;9.028;2023-06-10T12:56:36;7.30;;;5.77;;
3789;SDS011;1910;49.042;9.028;2023-06-10T12:59:02;6.43;;;5.93;;
3789;SDS011;1910;49.042;9.028;2023-06-10T13:01:27;6.07;;;5.50;;
3789;SDS011;1910;49.042;9.028;2023-06-10T13:03:53;6.67;;;6.10;;
3789;SDS011;1910;49.042;9.028;2023-06-10T13:06:19;6.40;;;5.90;;
3789;SDS011;1910;49.042;9.028;2023-06-10T13:08:45;6.87;;;6.27;;
3789;SDS011;1910;49.042;9.028;2023-06-10T13:11:11;6.87;;;6.23;;
3789;SDS011;1910;49.042;9.028;2023-06-10T13:13:37;6.53;;;6.07;;
3789;SDS011;1910;49.042;9.028;2023-06-10T13:16:03;6.40;;;5.90;;
3789;SDS011;1910;49.042;9.028;2023-06-10T13:18:28;6.37;;;5.77;;
3789;SDS011;1910;49.042;9.028;2023-06-10T13:20:54;6.73;;;6.13;;
3789;SDS011;1910;49.042;9.028;2023-06-10T13:23:19;6.27;;;5.60;;
3789;SDS011;1910;49.042;9.028;2023-06-10T13:25:45;9.00;;;5.13;;
3789;SDS011;1910;49.042;9.028;2023-06-10T13:28:11;5.73;;;5.23;;
3789;SDS011;1910;49.042;9.028;2023-06-10T13:30:37;6.73;;;6.13;;
3789;SDS011;1910;49.042;9.028;2023-06-10T13:33:02;6.90;;;6.30;;
3789;SDS011;1910;49.042;9.028;2023-06-10T13:35:28;6.30;;;5.70;;
3789;SDS011;1910;49.042;9.028;2023-06-10T13:37:53;6.90;;;6.30;;
3789;SDS011;1910;49.042;9.028;2023-06-10T13:40:19;6.03;;;5.63;;
3789;SDS011;1910;49.042;9.028;2023-06-10T13:42:44;6.27;;;5.67;;
3789;SDS011;1910;49.042;9.028;2023-06-10T13:45:15;5.70;;;5.30;;
3789;SDS011;1910;49.042;9.028;2023-06-10T13:47:41;6.33;;;5.73;;
3789;SDS011;1910;49.042;9.028;2023-06-10T13:50:07;6.00;;;5.53;;
3789;SDS011;1910;49.042;9.028;2023-06-10T13:52:33;5.93;;;5.43;;
3789;SDS011;1910;49.042;9.028;2023-06-10T13:54:59;6.33;;;5.83;;
3789;SDS011;1910;49.042;9.028;2023-06-10T13:57:24;6.10;;;5.50;;
3789;SDS011;1910;49.042;9.028;2023-06-10T13:59:50;6.40;;;5.90;;
3789;SDS011;1910;49.042;9.028;2023-06-10T14:02:15;5.93;;;5.53;;
3789;SDS011;1910;49.042;9.028;2023-06-10T14:04:41;6.53;;;6.07;;
3789;SDS011;1910;49.042;9.028;2023-06-10T14:07:07;5.60;;;5.20;;
3789;SDS011;1910;49.042;9.028;2023-06-10T14:09:32;5.70;;;5.20;;
3789;SDS011;1910;49.042;9.028;2023-06-10T14:11:58;6.60;;;6.00;;
3789;SDS011;1910;49.042;9.028;2023-06-10T14:14:23;6.27;;;5.67;;
3789;SDS011;1910;49.042;9.028;2023-06-10T14:16:49;5.70;;;5.20;;
3789;SDS011;1910;49.042;9.028;2023-06-10T14:19:15;7.57;;;6.77;;
3789;SDS011;1910;49.042;9.028;2023-06-10T14:21:40;5.90;;;5.50;;
3789;SDS011;1910;49.042;9.028;2023-06-10T14:24:06;6.20;;;5.80;;
3789;SDS011;1910;49.042;9.028;2023-06-10T14:26:31;5.53;;;5.10;;
3789;SDS011;1910;49.042;9.028;2023-06-10T14:28:57;7.40;;;5.90;;
3789;SDS011;1910;49.042;9.028;2023-06-10T14:31:23;6.40;;;5.10;;
3789;SDS011;1910;49.042;9.028;2023-06-10T14:33:48;5.87;;;5.40;;
3789;SDS011;1910;49.042;9.028;2023-06-10T14:36:14;6.43;;;5.90;;
3789;SDS011;1910;49.042;9.028;2023-06-10T14:38:40;5.73;;;5.30;;
3789;SDS011;1910;49.042;9.028;2023-06-10T14:41:05;6.37;;;5.87;;
3789;SDS011;1910;49.042;9.028;2023-06-10T14:43:31;5.80;;;5.40;;
3789;SDS011;1910;49.042;9.028;2023-06-10T14:45:56;5.83;;;5.33;;
3789;SDS011;1910;49.042;9.028;2023-06-10T14:48:22;6.33;;;5.83;;
3789;SDS011;1910;49.042;9.028;2023-06-10T14:50:48;6.23;;;5.73;;
3789;SDS011;1910;49.042;9.028;2023-06-10T14:53:16;5.80;;;5.40;;
3789;SDS011;1910;49.042;9.028;2023-06-10T14:55:43;6.60;;;6.00;;
3789;SDS011;1910;49.042;9.028;2023-06-10T14:58:08;7.43;;;6.73;;
3789;SDS011;1910;49.042;9.028;2023-06-10T15:00:34;5.67;;;5.27;;
3789;SDS011;1910;49.042;9.028;2023-06-10T15:02:59;5.90;;;5.40;;
3789;SDS011;1910;49.042;9.028;2023-06-10T15:05:25;6.50;;;5.70;;
3789;SDS011;1910;49.042;9.028;2023-06-10T15:07:50;5.30;;;4.90;;
3789;SDS011;1910;49.042;9.028;2023-06-10T15:10:16;5.40;;;5.00;;
3789;SDS011;1910;49.042;9.028;2023-06-10T15:12:42;5.83;;;5.10;;
3789;SDS011;1910;49.042;9.028;2023-06-10T15:15:08;5.87;;;5.37;;
3789;SDS011;1910;49.042;9.028;2023-06-10T15:17:34;5.80;;;5.40;;
3789;SDS011;1910;49.042;9.028;2023-06-10T15:20:00;5.10;;;4.70;;
3789;SDS011;1910;49.042;9.028;2023-06-10T15:22:25;6.40;;;5.80;;
3789;SDS011;1910;49.042;9.028;2023-06-10T15:24:51;5.90;;;5.40;;
3789;SDS011;1910;49.042;9.028;2023-06-10T15:27:16;6.17;;;5.60;;
3789;SDS011;1910;49.042;9.028;2023-06-10T15:29:42;5.83;;;5.23;;
3789;SDS011;1910;49.042;9.028;2023-06-10T15:32:07;8.27;;;5.50;;
3789;SDS011;1910;49.042;9.028;2023-06-10T15:34:33;5.40;;;4.90;;
3789;SDS011;1910;49.042;9.028;2023-06-10T15:36:59;5.33;;;4.93;;
3789;SDS011;1910;49.042;9.028;2023-06-10T15:39:24;9.20;;;7.37;;
3789;SDS011;1910;49.042;9.028;2023-06-10T15:41:52;9.00;;;7.40;;
3789;SDS011;1910;49.042;9.028;2023-06-10T15:44:17;5.27;;;4.83;;
3789;SDS011;1910;49.042;9.028;2023-06-10T15:46:43;6.30;;;5.77;;
3789;SDS011;1910;49.042;9.028;2023-06-10T15:49:09;5.97;;;5.57;;
3789;SDS011;1910;49.042;9.028;2023-06-10T15:51:35;5.70;;;5.17;;
3789;SDS011;1910;49.042;9.028;2023-06-10T15:54:01;4.50;;;4.20;;
3789;SDS011;1910;49.042;9.028;2023-06-10T15:56:26;5.43;;;5.13;;
3789;SDS011;1910;49.042;9.028;2023-06-10T15:58:52;5.53;;;5.13;;
3789;SDS011;1910;49.042;9.028;2023-06-10T16:01:17;4.70;;;4.30;;
3789;SDS011;1910;49.042;9.028;2023-06-10T16:03:44;4.80;;;4.40;;
3789;SDS011;1910;49.042;9.028;2023-06-10T16:06:09;5.40;;;4.97;;
3789;SDS011;1910;49.042;9.028;2023-06-10T16:08:35;5.50;;;5.00;;
3789;SDS011;1910;49.042;9.028;2023-06-10T16:11:01;4.83;;;4.53;;
3789;SDS011;1910;49.042;9.028;2023-06-10T16:13:28;5.17;;;4.77;;
3789;SDS011;1910;49.042;9.028;2023-06-10T16:15:54;5.00;;;4.60;;
3789;SDS011;1910;49.042;9.028;2023-06-10T16:18:20;5.60;;;5.07;;
3789;SDS011;1910;49.042;9.028;2023-06-10T16:20:45;4.90;;;4.40;;
3789;SDS011;1910;49.042;9.028;2023-06-10T16:23:11;4.87;;;4.37;;
3789;SDS011;1910;49.042;9.028;2023-06-10T16:25:36;4.87;;;4.47;;
3789;SDS011;1910;49.042;9.028;2023-06-10T16:28:03;4.20;;;3.90;;
3789;SDS011;1910;49.042;9.028;2023-06-10T16:30:29;5.00;;;4.60;;
3789;SDS011;1910;49.042;9.028;2023-06-10T16:32:55;5.00;;;4.60;;
3789;SDS011;1910;49.042;9.028;2023-06-10T16:35:21;4.97;;;4.47;;
3789;SDS011;1910;49.042;9.028;2023-06-10T16:37:47;4.60;;;4.20;;
3789;SDS011;1910;49.042;9.028;2023-06-10T16:40:13;4.70;;;4.30;;
3789;SDS011;1910;49.042;9.028;2023-06-10T16:42:38;4.93;;;4.60;;
3789;SDS011;1910;49.042;9.028;2023-06-10T16:45:04;4.20;;;3.90;;
3789;SDS011;1910;49.042;9.028;2023-06-10T16:47:30;4.57;;;4.17;;
3789;SDS011;1910;49.042;9.028;2023-06-10T16:49:55;4.50;;;3.93;;
3789;SDS011;1910;49.042;9.028;2023-06-10T16:52:21;4.50;;;4.10;;
3789;SDS011;1910;49.042;9.028;2023-06-10T16:54:46;4.03;;;3.77;;
3789;SDS011;1910;49.042;9.028;2023-06-10T16:57:12;4.50;;;4.10;;
3789;SDS011;1910;49.042;9.028;2023-06-10T16:59:37;4.23;;;3.90;;
3789;SDS011;1910;49.042;9.028;2023-06-10T17:02:03;4.53;;;4.13;;
3789;SDS011;1910;49.042;9.028;2023-06-10T17:04:29;5.80;;;4.13;;
3789;SDS011;1910;49.042;9.028;2023-06-10T17:06:55;4.10;;;3.80;;
3789;SDS011;1910;49.042;9.028;2023-06-10T17:09:20;5.70;;;4.37;;
3789;SDS011;1910;49.042;9.028;2023-06-10T17:11:46;4.70;;;4.17;;
3789;SDS011;1910;49.042;9.028;2023-06-10T17:14:11;4.77;;;4.37;;
3789;SDS011;1910;49.042;9.028;2023-06-10T17:16:37;4.30;;;4.00;;
3789;SDS011;1910;49.042;9.028;2023-06-10T17:19:03;5.07;;;4.67;;
3789;SDS011;1910;49.042;9.028;2023-06-10T17:21:28;4.53;;;4.13;;
3789;SDS011;1910;49.042;9.028;2023-06-10T17:23:54;5.33;;;4.83;;